Terminal Aerodrome Forecast
Issued by NWS Green Bay, WI

Home | Current Version | Previous Version | Text Only | Print | Product List | Glossary On
Versions: 1 2 3 4 5 6 7 8 9 10 11 12 13 14 15 16 17 18 19 20 21 22 23 24 25 26 27 28 29 30 31 32 33 34 35 36 37 38 39 40 41 42 43 44 45 46 47 48 49 50
000
FTUS43 KGRB 240520
TAFGRB
TAF
KGRB 240520Z 2406/2506 32003KT P6SM SCT005 OVC025
      TEMPO 2406/2407 4SM BR BKN005
     FM240700 32003KT 4SM BR OVC025
      TEMPO 2407/2410 2SM BR BKN015
     FM241000 31002KT 2SM BR BKN015
      TEMPO 2410/2414 3/4SM BR BKN006
     FM241400 32003KT 3SM BR OVC014
     FM241600 32004KT P6SM BKN025 PROB30 2502/2506 3SM -SN BKN015=

USA.gov is the U.S. government's official web portal to all federal, state and local government web resources and services.